Time;durP1;ratioP1;P1;durP2;ratioP2;P2;SDS_P1;SDS_P2;PMS_P1;PMS_P2;Temp;Humidity;BMP_temperature;BMP_pressure;BME280_temperature;BME280_humidity;BME280_pressure;Samples;Min_cycle;Max_cycle;Signal;HPM_P1;HPM_P2
2023/02/28 00:00:19;;;;;;;0.20;0.20;;;0.70;99.90;;;;;;5077967;28;20036;-73
2023/02/28 00:02:46;;;;;;;0.22;0.22;;;0.70;99.90;;;;;;5076998;28;20036;-73
2023/02/28 00:05:14;;;;;;;0.20;0.20;;;0.70;99.90;;;;;;5078096;28;20021;-73
2023/02/28 00:07:40;;;;;;;0.30;0.30;;;0.70;99.90;;;;;;5077609;28;20086;-73
2023/02/28 00:10:07;;;;;;;0.20;0.20;;;0.70;99.90;;;;;;5077600;28;20470;-74
2023/02/28 00:12:33;;;;;;;0.30;0.30;;;0.70;99.90;;;;;;5059858;28;20031;-73
2023/02/28 00:14:59;;;;;;;0.20;0.20;;;0.80;99.90;;;;;;5076769;28;20024;-73
2023/02/28 00:17:25;;;;;;;0.20;0.20;;;0.90;99.90;;;;;;5077775;28;20394;-74
2023/02/28 00:19:51;;;;;;;0.20;0.20;;;1.00;99.90;;;;;;5076953;28;20415;-73
2023/02/28 00:22:19;;;;;;;0.20;0.20;;;1.10;99.90;;;;;;5077400;28;20118;-74
2023/02/28 00:24:46;;;;;;;0.20;0.20;;;1.20;99.90;;;;;;5076121;28;20493;-73
2023/02/28 00:27:12;;;;;;;0.20;0.20;;;1.30;99.90;;;;;;5077361;28;20024;-73
2023/02/28 00:29:38;;;;;;;0.20;0.20;;;1.30;99.90;;;;;;5058985;28;20027;-73
2023/02/28 00:32:05;;;;;;;0.20;0.20;;;1.30;99.90;;;;;;5076971;28;20112;-73
2023/02/28 00:34:39;;;;;;;0.17;0.17;;;1.50;99.90;;;;;;5076707;28;20086;-73
2023/02/28 00:37:10;;;;;;;0.20;0.20;;;1.50;99.90;;;;;;5076975;28;20035;-74
2023/02/28 00:39:37;;;;;;;0.10;0.10;;;1.60;99.90;;;;;;5058953;28;20056;-73
2023/02/28 00:42:03;;;;;;;0.20;0.20;;;1.60;99.90;;;;;;5058968;28;20024;-73
2023/02/28 00:44:29;;;;;;;0.20;0.20;;;1.60;99.90;;;;;;5077375;28;20056;-73
2023/02/28 00:46:56;;;;;;;0.20;0.20;;;1.60;99.90;;;;;;5075964;28;20054;-73
2023/02/28 00:49:22;;;;;;;0.20;0.20;;;1.70;99.90;;;;;;5058755;28;20425;-73
2023/02/28 00:51:48;;;;;;;0.20;0.20;;;1.70;99.90;;;;;;5076784;28;20028;-73
2023/02/28 00:54:13;;;;;;;0.30;0.30;;;1.80;99.90;;;;;;5076368;28;20024;-74
2023/02/28 00:56:39;;;;;;;0.20;0.20;;;1.80;99.90;;;;;;5076714;28;20028;-74
2023/02/28 00:59:04;;;;;;;0.20;0.20;;;1.90;99.90;;;;;;5076060;28;20020;-74
2023/02/28 01:01:30;;;;;;;0.20;0.20;;;1.90;99.90;;;;;;5076513;28;20070;-73
2023/02/28 01:03:56;;;;;;;0.10;0.10;;;1.90;99.90;;;;;;5076101;28;20025;-73
2023/02/28 01:06:21;;;;;;;0.30;0.30;;;1.90;99.90;;;;;;5076695;28;20029;-73
2023/02/28 01:08:47;;;;;;;0.20;0.20;;;2.00;99.90;;;;;;5075838;28;20021;-73
2023/02/28 01:11:15;;;;;;;0.30;0.30;;;2.00;99.90;;;;;;5076332;28;20036;-74
2023/02/28 01:13:42;;;;;;;0.30;0.30;;;2.00;99.90;;;;;;5076448;28;20056;-73
2023/02/28 01:16:08;;;;;;;0.13;0.13;;;2.00;99.90;;;;;;5057883;28;20028;-73
2023/02/28 01:18:36;;;;;;;0.20;0.20;;;2.10;99.90;;;;;;5075535;28;20029;-74
2023/02/28 01:21:12;;;;;;;0.20;0.20;;;2.10;99.90;;;;;;5075800;28;20529;-73
2023/02/28 01:23:38;;;;;;;0.20;0.20;;;2.20;99.90;;;;;;5068641;28;20053;-73
2023/02/28 01:26:09;;;;;;;0.20;0.20;;;2.10;99.90;;;;;;5055815;28;20474;-73
2023/02/28 01:28:34;;;;;;;0.20;0.20;;;2.20;99.90;;;;;;5055080;28;20025;-73
2023/02/28 01:31:00;;;;;;;0.20;0.20;;;2.20;99.90;;;;;;5056241;28;20028;-73
2023/02/28 01:33:26;;;;;;;0.20;0.20;;;2.20;99.90;;;;;;5057963;28;20082;-73
2023/02/28 01:36:03;;;;;;;0.20;0.20;;;2.20;99.90;;;;;;5057180;28;20028;-74
2023/02/28 01:38:29;;;;;;;0.10;0.10;;;2.10;99.90;;;;;;5075573;28;20401;-74
2023/02/28 01:40:55;;;;;;;0.20;0.20;;;2.10;99.90;;;;;;5021119;28;20025;-73
2023/02/28 01:43:50;;;;;;;0.10;0.10;;;2.20;99.90;;;;;;5035790;28;20064;-73
2023/02/28 01:46:16;;;;;;;0.20;0.20;;;2.30;99.90;;;;;;5047518;28;20025;-73
2023/02/28 01:48:59;;;;;;;0.20;0.20;;;2.30;99.90;;;;;;5064768;28;20402;-73
2023/02/28 01:51:46;;;;;;;0.20;0.20;;;2.20;99.90;;;;;;5074979;28;20033;-74
2023/02/28 01:54:20;;;;;;;0.20;0.20;;;2.20;99.90;;;;;;5045104;28;20112;-73
2023/02/28 01:56:52;;;;;;;0.20;0.20;;;2.20;99.90;;;;;;5035383;28;20026;-73
2023/02/28 01:59:30;;;;;;;0.17;0.17;;;2.20;99.90;;;;;;5039504;28;20037;-73
2023/02/28 02:01:55;;;;;;;0.20;0.20;;;2.10;99.90;;;;;;5055937;28;20060;-74
2023/02/28 02:04:24;;;;;;;0.28;0.28;;;1.90;99.90;;;;;;5054287;28;20013;-73
2023/02/28 02:06:50;;;;;;;0.20;0.20;;;1.80;99.90;;;;;;5055433;28;20482;-73
2023/02/28 02:09:16;;;;;;;0.20;0.20;;;1.60;99.90;;;;;;5056552;28;20100;-73
2023/02/28 02:11:44;;;;;;;0.20;0.20;;;1.40;99.90;;;;;;5075261;28;20025;-73
2023/02/28 02:14:18;;;;;;;0.20;0.20;;;1.20;99.90;;;;;;5075073;28;20075;-73
2023/02/28 02:17:14;;;;;;;0.22;0.22;;;1.10;99.90;;;;;;5074922;28;20074;-73
2023/02/28 02:19:57;;;;;;;0.20;0.20;;;0.90;99.90;;;;;;5035061;28;20037;-73
2023/02/28 02:22:51;;;;;;;0.20;0.20;;;0.80;99.90;;;;;;5034556;28;20029;-73
2023/02/28 02:25:54;;;;;;;0.25;0.25;;;0.70;99.90;;;;;;5052626;28;20040;-73
2023/02/28 02:28:51;;;;;;;0.20;0.20;;;0.60;99.90;;;;;;4984310;28;20077;-73
2023/02/28 02:31:51;;;;;;;0.20;0.20;;;0.50;99.90;;;;;;5034645;28;20032;-73
2023/02/28 02:34:34;;;;;;;0.10;0.10;;;0.40;99.90;;;;;;5016166;28;20038;-73
2023/02/28 02:37:15;;;;;;;0.22;0.22;;;0.30;99.90;;;;;;5034659;28;20022;-73
2023/02/28 02:39:54;;;;;;;0.20;0.20;;;0.30;99.90;;;;;;5049158;28;20078;-73
2023/02/28 02:42:47;;;;;;;0.30;0.30;;;0.20;99.90;;;;;;5074279;28;20032;-74
2023/02/28 02:45:24;;;;;;;0.20;0.20;;;0.20;99.90;;;;;;5075071;28;20017;-73
2023/02/28 02:47:55;;;;;;;0.20;0.20;;;0.10;99.90;;;;;;5074888;28;20032;-73
2023/02/28 02:50:26;;;;;;;0.20;0.20;;;0.10;99.90;;;;;;5074371;28;20051;-73
2023/02/28 02:52:58;;;;;;;0.20;0.20;;;0.00;99.90;;;;;;5074445;28;20025;-73
2023/02/28 02:55:24;;;;;;;0.20;0.20;;;-0.10;99.90;;;;;;5066486;28;20021;-74
2023/02/28 02:58:05;;;;;;;0.20;0.20;;;-0.10;99.90;;;;;;5056085;28;20036;-73
2023/02/28 03:00:40;;;;;;;0.20;0.20;;;-0.10;99.90;;;;;;5055349;28;20025;-73
2023/02/28 03:03:09;;;;;;;0.20;0.20;;;-0.20;99.90;;;;;;5057555;28;20020;-73
2023/02/28 03:05:44;;;;;;;0.20;0.20;;;-0.20;99.90;;;;;;5073879;28;20021;-73
2023/02/28 03:08:10;;;;;;;0.20;0.20;;;-0.30;99.90;;;;;;5074509;28;20160;-74
2023/02/28 03:10:41;;;;;;;0.20;0.20;;;-0.40;99.90;;;;;;5074749;28;20122;-74
2023/02/28 03:13:25;;;;;;;0.22;0.22;;;-0.40;99.90;;;;;;5074002;28;20017;-73
2023/02/28 03:16:25;;;;;;;0.20;0.20;;;-0.40;99.90;;;;;;5073625;28;20035;-74
2023/02/28 03:19:18;;;;;;;0.15;0.15;;;-0.50;99.90;;;;;;5068834;28;20039;-73
2023/02/28 03:22:05;;;;;;;0.20;0.20;;;-0.60;99.90;;;;;;5074985;28;20494;-74
2023/02/28 03:24:46;;;;;;;0.20;0.20;;;-0.60;99.90;;;;;;5065265;28;20037;-73
2023/02/28 03:27:30;;;;;;;0.20;0.20;;;-0.60;99.90;;;;;;5054535;28;20115;-74
2023/02/28 03:30:19;;;;;;;0.20;0.20;;;-0.60;99.90;;;;;;5047151;28;20045;-74
2023/02/28 03:32:58;;;;;;;0.22;0.22;;;-0.70;99.90;;;;;;5017189;28;20450;-74
2023/02/28 03:35:32;;;;;;;0.30;0.30;;;-0.70;99.90;;;;;;5034237;28;20025;-74
2023/02/28 03:38:13;;;;;;;0.10;0.10;;;-0.70;99.90;;;;;;5033976;28;20109;-74
2023/02/28 03:40:42;;;;;;;0.20;0.20;;;-0.70;99.90;;;;;;5044383;28;20063;-74
2023/02/28 03:43:14;;;;;;;0.22;0.22;;;-0.70;99.90;;;;;;5074606;28;20028;-74
2023/02/28 03:45:43;;;;;;;0.20;0.20;;;-0.80;99.90;;;;;;5074231;28;20516;-74
2023/02/28 03:48:32;;;;;;;0.20;0.20;;;-0.80;99.90;;;;;;5073474;28;20109;-74
2023/02/28 03:50:59;;;;;;;0.20;0.20;;;-0.90;99.90;;;;;;5073698;28;20546;-74
2023/02/28 03:53:54;;;;;;;0.20;0.20;;;-0.90;99.90;;;;;;5071732;28;20035;-74
2023/02/28 03:56:26;;;;;;;0.30;0.30;;;-1.00;99.90;;;;;;5041931;28;20465;-74
2023/02/28 03:59:01;;;;;;;0.20;0.20;;;-1.00;99.90;;;;;;5054545;28;20037;-74
2023/02/28 04:01:42;;;;;;;0.20;0.20;;;-1.10;99.90;;;;;;5071575;28;20025;-74
2023/02/28 04:04:11;;;;;;;0.20;0.20;;;-1.10;99.90;;;;;;5077386;28;20029;-74
2023/02/28 04:06:38;;;;;;;0.20;0.20;;;-1.10;99.90;;;;;;5077583;28;20031;-74
2023/02/28 04:09:07;;;;;;;0.20;0.20;;;-1.10;99.90;;;;;;5077784;28;20059;-74
2023/02/28 04:11:38;;;;;;;0.20;0.20;;;-1.20;99.90;;;;;;5076393;28;20047;-74
2023/02/28 04:14:05;;;;;;;0.30;0.30;;;-1.10;99.90;;;;;;5077758;28;20032;-74
2023/02/28 04:16:32;;;;;;;0.20;0.20;;;-1.10;99.90;;;;;;5076892;28;20037;-74
2023/02/28 04:19:01;;;;;;;0.20;0.20;;;-1.10;99.90;;;;;;5059561;28;20028;-74
2023/02/28 04:21:49;;;;;;;0.13;0.13;;;-1.10;99.90;;;;;;5059611;28;20021;-74
2023/02/28 04:24:18;;;;;;;0.20;0.20;;;-1.10;99.90;;;;;;5076986;28;20017;-74
2023/02/28 04:26:49;;;;;;;0.20;0.20;;;-1.10;99.90;;;;;;5076763;28;20031;-74
2023/02/28 04:29:20;;;;;;;0.20;0.20;;;-1.00;99.90;;;;;;5077484;28;20025;-74
2023/02/28 04:31:48;;;;;;;0.20;0.20;;;-1.00;99.90;;;;;;5059453;28;20020;-74
2023/02/28 04:34:14;;;;;;;0.20;0.20;;;-1.00;99.90;;;;;;5076665;28;20473;-74
2023/02/28 04:36:40;;;;;;;0.17;0.17;;;-0.90;99.90;;;;;;5076844;28;20107;-74
2023/02/28 04:39:05;;;;;;;0.20;0.20;;;-0.80;99.90;;;;;;5058715;28;20029;-74
2023/02/28 04:41:31;;;;;;;0.30;0.30;;;-0.90;99.90;;;;;;5077303;28;20029;-74
2023/02/28 04:43:56;;;;;;;0.20;0.20;;;-0.90;99.90;;;;;;5076986;28;20524;-74
2023/02/28 04:46:23;;;;;;;0.20;0.20;;;-1.00;99.90;;;;;;5076835;28;20016;-74
2023/02/28 04:48:48;;;;;;;0.20;0.20;;;-1.10;99.90;;;;;;5076110;28;20031;-74
2023/02/28 04:51:17;;;;;;;0.20;0.20;;;-1.20;99.90;;;;;;5059188;28;20066;-74
2023/02/28 04:53:45;;;;;;;0.30;0.30;;;-1.30;99.90;;;;;;5077314;28;20498;-74
2023/02/28 04:56:13;;;;;;;0.25;0.25;;;-1.20;99.90;;;;;;5058343;28;20069;-74
2023/02/28 04:58:39;;;;;;;0.20;0.20;;;-1.10;99.90;;;;;;5076938;28;20039;-74
2023/02/28 05:01:26;;;;;;;0.30;0.30;;;-1.00;99.90;;;;;;5075634;28;20017;-74
2023/02/28 05:03:54;;;;;;;0.20;0.20;;;-0.90;99.90;;;;;;5057610;28;20119;-74
2023/02/28 05:06:23;;;;;;;0.30;0.30;;;-0.70;99.90;;;;;;5076608;28;20013;-74
2023/02/28 05:08:49;;;;;;;0.20;0.20;;;-0.70;99.90;;;;;;5076521;28;20021;-74
2023/02/28 05:11:20;;;;;;;0.20;0.20;;;-0.70;99.90;;;;;;5075195;28;20036;-74
2023/02/28 05:13:46;;;;;;;0.30;0.30;;;-0.80;99.90;;;;;;5057386;28;20075;-74
2023/02/28 05:16:12;;;;;;;0.30;0.30;;;-0.90;99.90;;;;;;5055542;28;20055;-74
2023/02/28 05:18:38;;;;;;;0.22;0.22;;;-1.00;99.90;;;;;;5056642;28;20485;-74
2023/02/28 05:21:04;;;;;;;0.20;0.20;;;-1.10;99.90;;;;;;5055862;28;20021;-74
2023/02/28 05:23:30;;;;;;;0.20;0.20;;;-1.30;99.90;;;;;;5056183;28;20505;-74
2023/02/28 05:25:55;;;;;;;0.20;0.20;;;-1.30;99.90;;;;;;5055826;28;20037;-74
2023/02/28 05:28:21;;;;;;;0.20;0.20;;;-1.30;99.90;;;;;;5043006;28;20028;-74
2023/02/28 05:30:47;;;;;;;0.20;0.20;;;-1.40;99.90;;;;;;5058054;28;20024;-74
2023/02/28 05:33:13;;;;;;;0.20;0.20;;;-1.40;99.90;;;;;;5057735;28;20025;-74
2023/02/28 05:35:40;;;;;;;0.20;0.20;;;-1.50;99.90;;;;;;5076139;28;20103;-74
2023/02/28 05:38:05;;;;;;;0.30;0.30;;;-1.50;99.90;;;;;;5057706;28;20029;-74
2023/02/28 05:40:31;;;;;;;0.25;0.25;;;-1.60;99.90;;;;;;5060597;28;20029;-74
2023/02/28 05:42:56;;;;;;;0.28;0.28;;;-1.60;99.90;;;;;;5037798;28;20024;-74
2023/02/28 05:45:22;;;;;;;0.20;0.20;;;-1.70;99.90;;;;;;5050546;28;20025;-74
2023/02/28 05:47:47;;;;;;;0.30;0.30;;;-1.70;99.90;;;;;;5035255;28;20022;-74
2023/02/28 05:50:13;;;;;;;0.30;0.30;;;-1.60;99.90;;;;;;5035730;28;20499;-74
2023/02/28 05:52:41;;;;;;;0.30;0.30;;;-1.60;99.90;;;;;;5054385;28;20499;-74
2023/02/28 05:55:07;;;;;;;0.20;0.20;;;-1.60;99.90;;;;;;5037366;28;20092;-74
2023/02/28 05:57:33;;;;;;;0.20;0.20;;;-1.60;99.90;;;;;;5055241;28;20025;-74
2023/02/28 05:59:58;;;;;;;0.20;0.20;;;-1.50;99.90;;;;;;5055820;28;20036;-74
2023/02/28 06:02:24;;;;;;;0.20;0.20;;;-1.40;99.90;;;;;;5072583;28;20029;-74
2023/02/28 06:04:50;;;;;;;0.20;0.20;;;-1.20;99.90;;;;;;5075310;28;20382;-74
2023/02/28 06:07:17;;;;;;;0.20;0.20;;;-1.20;99.90;;;;;;5074807;28;20500;-74
2023/02/28 06:09:42;;;;;;;0.22;0.22;;;-1.30;99.90;;;;;;5075125;28;20070;-74
2023/02/28 06:12:10;;;;;;;0.20;0.20;;;-1.30;99.90;;;;;;5075146;28;20032;-74
2023/02/28 06:14:36;;;;;;;0.20;0.20;;;-1.40;99.90;;;;;;5074975;28;20486;-74
2023/02/28 06:17:02;;;;;;;0.30;0.30;;;-1.50;99.90;;;;;;5075105;28;20031;-74
2023/02/28 06:19:29;;;;;;;0.20;0.20;;;-1.30;99.90;;;;;;5074439;28;20024;-74
2023/02/28 06:21:56;;;;;;;0.20;0.20;;;-1.30;99.90;;;;;;5074708;28;20024;-74
2023/02/28 06:24:23;;;;;;;0.22;0.22;;;-1.30;99.90;;;;;;5075561;28;20024;-74
2023/02/28 06:26:49;;;;;;;0.20;0.20;;;-1.30;99.90;;;;;;5056660;28;20150;-74
2023/02/28 06:29:18;;;;;;;0.20;0.20;;;-1.40;99.90;;;;;;5074534;28;20039;-74
2023/02/28 06:31:47;;;;;;;0.20;0.20;;;-1.40;99.90;;;;;;5056666;28;20397;-74
2023/02/28 06:34:13;;;;;;;0.20;0.20;;;-1.50;99.90;;;;;;5057325;28;20025;-74
2023/02/28 06:36:40;;;;;;;0.30;0.30;;;-1.50;99.90;;;;;;5074341;28;20040;-74
2023/02/28 06:39:06;;;;;;;0.30;0.30;;;-1.50;99.90;;;;;;5071176;28;20031;-74
2023/02/28 06:41:37;;;;;;;0.30;0.30;;;-1.40;99.90;;;;;;5054866;28;20067;-74
2023/02/28 06:44:05;;;;;;;0.20;0.20;;;-1.40;99.90;;;;;;5054436;28;20018;-74
2023/02/28 06:46:32;;;;;;;0.30;0.30;;;-1.40;99.90;;;;;;5057636;28;20520;-74
2023/02/28 06:48:57;;;;;;;0.20;0.20;;;-1.40;99.90;;;;;;5074218;28;20473;-74
2023/02/28 06:51:24;;;;;;;0.30;0.30;;;-1.40;99.90;;;;;;5074794;28;20036;-74
2023/02/28 06:53:50;;;;;;;0.20;0.20;;;-1.40;99.90;;;;;;5056668;28;20032;-74
2023/02/28 06:56:17;;;;;;;0.20;0.20;;;-1.40;99.90;;;;;;5074593;28;20070;-73
2023/02/28 06:58:48;;;;;;;0.20;0.20;;;-1.30;99.90;;;;;;5074404;28;20052;-74
2023/02/28 07:01:14;;;;;;;0.20;0.20;;;-1.20;99.90;;;;;;5056577;28;20066;-74
2023/02/28 07:03:43;;;;;;;0.20;0.20;;;-1.10;99.90;;;;;;5074731;28;20036;-74
2023/02/28 07:06:08;;;;;;;0.30;0.30;;;-1.00;99.90;;;;;;5074018;28;20028;-74
2023/02/28 07:08:35;;;;;;;0.20;0.20;;;-1.00;99.90;;;;;;5066821;28;20394;-74
2023/02/28 07:11:01;;;;;;;0.20;0.20;;;-0.90;99.90;;;;;;5067858;28;20020;-74
2023/02/28 07:13:27;;;;;;;0.20;0.20;;;-0.80;99.90;;;;;;5066928;28;20135;-73
2023/02/28 07:15:58;;;;;;;0.13;0.13;;;-0.70;99.90;;;;;;5050357;28;20035;-74
2023/02/28 07:18:24;;;;;;;0.20;0.20;;;-0.60;99.90;;;;;;5057056;28;20108;-74
2023/02/28 07:20:50;;;;;;;0.20;0.20;;;-0.40;99.90;;;;;;5074013;28;20135;-74
2023/02/28 07:23:17;;;;;;;0.20;0.20;;;-0.30;99.90;;;;;;5074160;28;20032;-74
2023/02/28 07:25:45;;;;;;;0.20;0.20;;;-0.10;99.90;;;;;;5074030;28;20397;-74
2023/02/28 07:28:12;;;;;;;0.20;0.20;;;0.00;99.90;;;;;;5055215;28;20029;-73
2023/02/28 07:30:38;;;;;;;0.20;0.20;;;0.20;99.90;;;;;;5074541;28;20047;-74
2023/02/28 07:33:03;;;;;;;0.10;0.10;;;0.30;99.90;;;;;;5055827;28;20024;-74
2023/02/28 07:35:29;;;;;;;0.20;0.20;;;0.50;99.90;;;;;;5078204;28;20029;-74
2023/02/28 07:37:58;;;;;;;0.10;0.10;;;0.70;99.90;;;;;;5077167;28;20127;-73
2023/02/28 07:40:24;;;;;;;0.20;0.20;;;0.80;99.90;;;;;;5060249;28;20033;-73
2023/02/28 07:42:50;;;;;;;0.20;0.20;;;1.00;99.90;;;;;;5077985;28;20374;-73
2023/02/28 07:45:15;;;;;;;0.20;0.20;;;1.10;99.90;;;;;;5067035;28;20021;-73
2023/02/28 07:47:42;;;;;;;0.20;0.20;;;1.30;99.90;;;;;;5065055;28;20486;-74
2023/02/28 07:50:09;;;;;;;0.20;0.20;;;1.50;99.90;;;;;;5057152;28;20028;-72
2023/02/28 07:52:37;;;;;;;0.20;0.20;;;1.80;99.90;;;;;;5058037;28;20037;-72
2023/02/28 07:55:04;;;;;;;0.20;0.20;;;2.00;99.90;;;;;;5069355;28;20029;-72
2023/02/28 07:57:29;;;;;;;0.20;0.20;;;2.10;99.90;;;;;;5077549;28;20029;-72
2023/02/28 07:59:55;;;;;;;0.20;0.20;;;2.30;99.90;;;;;;5059388;28;20131;-72
2023/02/28 08:02:21;;;;;;;0.20;0.20;;;2.50;99.90;;;;;;5059909;28;20452;-72
2023/02/28 08:04:47;;;;;;;0.20;0.20;;;2.70;99.90;;;;;;5077280;28;20386;-72
2023/02/28 08:07:13;;;;;;;0.20;0.20;;;2.90;99.90;;;;;;5077858;28;20121;-73
2023/02/28 08:09:40;;;;;;;0.20;0.20;;;3.00;99.90;;;;;;5077551;28;20111;-73
2023/02/28 08:12:06;;;;;;;0.20;0.20;;;3.20;99.90;;;;;;5077447;28;20024;-73
2023/02/28 08:14:32;;;;;;;0.20;0.20;;;3.40;99.90;;;;;;5077804;28;20028;-73
2023/02/28 08:16:58;;;;;;;0.17;0.17;;;3.40;99.90;;;;;;5077723;28;20027;-73
2023/02/28 08:19:23;;;;;;;0.13;0.13;;;3.50;99.90;;;;;;5077701;28;20102;-73
2023/02/28 08:21:49;;;;;;;0.10;0.10;;;3.60;99.90;;;;;;5059411;28;20535;-73
2023/02/28 08:24:14;;;;;;;0.13;0.13;;;3.70;99.90;;;;;;5059815;28;20028;-73
2023/02/28 08:26:40;;;;;;;0.10;0.10;;;3.80;99.90;;;;;;5077070;28;20029;-73
2023/02/28 08:29:05;;;;;;;0.22;0.22;;;4.00;99.90;;;;;;5077639;28;20027;-73
2023/02/28 08:31:31;;;;;;;0.20;0.20;;;4.00;99.90;;;;;;5077129;28;20389;-73
2023/02/28 08:33:58;;;;;;;0.10;0.10;;;4.20;99.90;;;;;;5059622;28;20482;-73
2023/02/28 08:36:25;;;;;;;0.20;0.20;;;4.30;99.90;;;;;;5077109;28;20021;-73
2023/02/28 08:38:50;;;;;;;0.15;0.15;;;4.40;99.90;;;;;;5077529;28;20469;-73
2023/02/28 08:41:16;;;;;;;0.20;0.20;;;4.70;99.90;;;;;;5076871;28;20028;-73
2023/02/28 08:43:41;;;;;;;0.20;0.20;;;4.90;99.90;;;;;;5077432;28;20474;-73
2023/02/28 08:46:10;;;;;;;0.10;0.10;;;5.00;99.90;;;;;;5076395;28;20012;-73
2023/02/28 08:48:37;;;;;;;0.10;0.10;;;5.10;99.90;;;;;;5076812;28;20074;-73
2023/02/28 08:51:17;;;;;;;0.10;0.10;;;5.20;99.90;;;;;;5076490;28;20013;-73
2023/02/28 08:53:42;;;;;;;0.20;0.20;;;5.30;99.90;;;;;;5077149;28;20024;-73
2023/02/28 08:56:13;;;;;;;0.20;0.20;;;5.30;99.90;;;;;;5076533;28;20024;-73
2023/02/28 08:58:38;;;;;;;0.20;0.20;;;5.40;99.90;;;;;;5059104;28;20028;-73
2023/02/28 09:01:12;;;;;;;0.20;0.20;;;5.50;99.90;;;;;;5076707;28;20032;-73
2023/02/28 09:03:38;;;;;;;0.20;0.20;;;5.50;99.90;;;;;;5077209;28;20477;-73
2023/02/28 09:06:04;;;;;;;0.20;0.20;;;5.60;99.90;;;;;;5076163;28;20428;-72
2023/02/28 09:08:31;;;;;;;0.10;0.10;;;5.70;99.90;;;;;;5076402;28;20021;-73
2023/02/28 09:10:57;;;;;;;0.20;0.20;;;5.70;99.90;;;;;;5076696;28;20025;-72
2023/02/28 09:13:24;;;;;;;0.20;0.20;;;5.70;99.90;;;;;;5076403;28;20111;-72
2023/02/28 09:15:50;;;;;;;0.20;0.20;;;5.80;99.90;;;;;;5076872;28;20108;-73
2023/02/28 09:18:16;;;;;;;0.20;0.20;;;5.90;99.90;;;;;;5075703;28;20052;-72
2023/02/28 09:20:42;;;;;;;0.20;0.20;;;6.00;99.90;;;;;;5076839;28;20033;-72
2023/02/28 09:23:09;;;;;;;0.15;0.15;;;6.10;99.90;;;;;;5076469;28;20425;-72
2023/02/28 09:25:35;;;;;;;0.10;0.10;;;6.20;99.90;;;;;;5122787;22;20051;-71
2023/02/28 09:28:01;;;;;;;0.20;0.20;;;6.30;99.90;;;;;;5055706;28;20473;-71
2023/02/28 09:30:27;;;;;;;0.20;0.20;;;6.50;99.90;;;;;;5054822;28;20024;-71
2023/02/28 09:32:53;;;;;;;0.20;0.20;;;6.50;99.90;;;;;;5055438;28;20112;-71
2023/02/28 09:35:20;;;;;;;0.30;0.30;;;6.60;99.90;;;;;;5055190;28;20021;-71
2023/02/28 09:37:47;;;;;;;0.20;0.20;;;6.60;99.90;;;;;;5055345;28;20028;-71
2023/02/28 09:40:17;;;;;;;0.20;0.20;;;6.70;99.90;;;;;;5054599;28;20037;-71
2023/02/28 09:42:45;;;;;;;0.20;0.20;;;6.80;99.90;;;;;;5055326;28;20430;-71
2023/02/28 09:45:25;;;;;;;0.20;0.20;;;6.90;99.90;;;;;;5054398;28;20032;-71
2023/02/28 09:47:58;;;;;;;0.20;0.20;;;7.10;99.90;;;;;;5054673;28;20025;-71
2023/02/28 09:50:26;;;;;;;0.20;0.20;;;7.10;99.90;;;;;;5054739;28;20043;-71
2023/02/28 09:52:54;;;;;;;0.20;0.20;;;7.10;99.90;;;;;;5054262;28;20029;-71
2023/02/28 09:55:33;;;;;;;0.20;0.20;;;7.30;99.90;;;;;;5054808;28;20402;-71
2023/02/28 09:58:00;;;;;;;0.20;0.20;;;7.40;99.90;;;;;;5054275;28;20036;-71
2023/02/28 10:00:34;;;;;;;0.20;0.20;;;7.50;99.90;;;;;;5054631;28;20035;-71
2023/02/28 10:03:27;;;;;;;0.20;0.20;;;7.50;99.90;;;;;;5054496;28;20021;-72
2023/02/28 10:06:16;;;;;;;0.20;0.20;;;7.40;99.90;;;;;;5054814;28;20174;-71
2023/02/28 10:09:17;;;;;;;0.30;0.30;;;7.40;99.90;;;;;;5054442;28;20155;-71
2023/02/28 10:11:45;;;;;;;0.13;0.13;;;7.30;99.90;;;;;;4993297;28;20098;-71
2023/02/28 10:14:15;;;;;;;0.10;0.10;;;7.60;99.90;;;;;;5053944;28;20074;-72
2023/02/28 10:17:04;;;;;;;0.20;0.20;;;7.60;99.90;;;;;;5054015;28;20021;-71
2023/02/28 10:19:38;;;;;;;0.20;0.20;;;7.70;99.90;;;;;;5053914;28;20545;-71
2023/02/28 10:22:18;;;;;;;;;;;7.70;99.90;;;;;;5054662;28;20467;-71
2023/02/28 10:24:45;;;;;;;0.30;0.30;;;7.80;99.90;;;;;;5054429;28;20467;-71
2023/02/28 10:27:24;;;;;;;0.20;0.20;;;7.80;99.90;;;;;;5053758;28;20482;-71
2023/02/28 10:29:52;;;;;;;0.20;0.20;;;7.90;99.90;;;;;;5053968;28;20032;-71
2023/02/28 10:32:20;;;;;;;0.20;0.20;;;7.90;99.90;;;;;;5054052;28;20470;-71
2023/02/28 10:35:09;;;;;;;0.20;0.20;;;8.00;99.90;;;;;;5053705;28;20033;-71
2023/02/28 10:37:38;;;;;;;0.20;0.20;;;8.10;99.90;;;;;;5053900;28;20155;-71
2023/02/28 10:40:05;;;;;;;0.20;0.20;;;8.10;99.90;;;;;;5053894;28;20025;-71
2023/02/28 10:42:32;;;;;;;0.17;0.17;;;8.20;99.90;;;;;;5035075;28;20032;-71
2023/02/28 10:45:14;;;;;;;0.20;0.20;;;8.30;99.90;;;;;;5053435;28;20060;-71
2023/02/28 10:47:57;;;;;;;0.15;0.15;;;8.30;99.90;;;;;;5035412;28;20035;-71
2023/02/28 10:50:49;;;;;;;0.20;0.20;;;8.20;99.90;;;;;;5053331;28;20026;-71
2023/02/28 10:53:27;;;;;;;0.20;0.20;;;8.30;99.90;;;;;;5044084;28;20090;-71
2023/02/28 10:56:01;;;;;;;0.10;0.10;;;8.40;99.90;;;;;;5101247;23;20044;-71
2023/02/28 10:58:51;;;;;;;0.15;0.15;;;8.50;99.90;;;;;;5036179;28;20021;-71
2023/02/28 11:01:21;;;;;;;0.13;0.13;;;8.60;99.90;;;;;;5015801;28;20580;-71
2023/02/28 11:03:48;;;;;;;0.20;0.20;;;8.50;99.90;;;;;;5053206;28;20036;-71
2023/02/28 11:06:20;;;;;;;0.20;0.20;;;8.50;99.90;;;;;;5053280;28;20103;-71
2023/02/28 11:08:50;;;;;;;0.20;0.20;;;8.50;99.90;;;;;;5053175;28;20032;-71
2023/02/28 11:11:16;;;;;;;0.10;0.10;;;8.60;99.90;;;;;;5053338;28;20287;-71
2023/02/28 11:13:44;;;;;;;0.20;0.20;;;8.80;99.90;;;;;;5052823;28;20486;-71
2023/02/28 11:16:12;;;;;;;0.20;0.20;;;9.00;99.90;;;;;;5053193;28;20421;-71
2023/02/28 11:18:48;;;;;;;0.20;0.20;;;9.10;99.90;;;;;;5053095;28;20017;-71
2023/02/28 11:21:39;;;;;;;0.10;0.10;;;9.00;99.90;;;;;;5052737;28;20393;-71
2023/02/28 11:24:30;;;;;;;0.20;0.20;;;9.10;99.90;;;;;;5034962;28;20032;-71
2023/02/28 11:26:56;;;;;;;0.20;0.20;;;9.10;99.90;;;;;;5052859;28;20048;-71
2023/02/28 11:29:24;;;;;;;0.17;0.17;;;9.20;99.90;;;;;;5052984;28;20482;-71
2023/02/28 11:32:10;;;;;;;0.28;0.28;;;9.40;99.90;;;;;;5053279;28;20036;-71
2023/02/28 11:34:37;;;;;;;0.20;0.20;;;9.50;99.90;;;;;;5054041;28;20108;-71
2023/02/28 11:37:06;;;;;;;0.20;0.20;;;9.40;99.90;;;;;;5036448;28;20025;-71
2023/02/28 11:39:32;;;;;;;0.20;0.20;;;9.10;99.90;;;;;;5055192;28;20032;-71
2023/02/28 11:42:24;;;;;;;0.20;0.20;;;9.00;99.90;;;;;;5036523;28;20112;-72
2023/02/28 11:45:08;;;;;;;0.20;0.20;;;9.10;99.90;;;;;;5053626;28;20074;-71
2023/02/28 11:47:44;;;;;;;0.20;0.20;;;9.10;99.90;;;;;;5052695;28;20540;-71
2023/02/28 11:50:47;;;;;;;0.20;0.20;;;9.20;99.90;;;;;;5052919;28;20029;-71
2023/02/28 11:53:49;;;;;;;0.20;0.20;;;9.30;99.90;;;;;;5053090;28;20490;-71
2023/02/28 11:56:29;;;;;;;0.20;0.20;;;9.40;99.90;;;;;;5053059;28;20044;-71
2023/02/28 11:59:16;;;;;;;0.20;0.20;;;9.60;99.90;;;;;;5052816;28;20573;-71
2023/02/28 12:02:00;;;;;;;0.20;0.20;;;9.80;99.90;;;;;;5053218;28;20029;-72
2023/02/28 12:04:33;;;;;;;0.20;0.20;;;10.20;99.90;;;;;;5053239;28;20078;-71
2023/02/28 12:07:17;;;;;;;0.20;0.20;;;10.20;99.90;;;;;;5053482;28;20029;-71
2023/02/28 12:10:20;;;;;;;0.10;0.10;;;10.30;99.90;;;;;;5035444;28;20047;-71
2023/02/28 12:13:01;;;;;;;0.17;0.17;;;10.50;99.90;;;;;;5034836;28;20055;-71
2023/02/28 12:16:00;;;;;;;0.22;0.22;;;10.70;99.90;;;;;;5053309;28;20036;-72
2023/02/28 12:18:41;;;;;;;0.20;0.20;;;10.70;99.90;;;;;;5053505;28;20025;-72
2023/02/28 12:21:21;;;;;;;0.20;0.20;;;10.60;99.90;;;;;;5056239;28;20029;-71
2023/02/28 12:24:01;;;;;;;0.10;0.10;;;10.80;99.90;;;;;;5056954;28;20455;-72
2023/02/28 12:26:42;;;;;;;0.17;0.17;;;10.70;99.90;;;;;;5038217;28;20032;-71
2023/02/28 12:29:30;;;;;;;0.20;0.20;;;11.00;99.90;;;;;;5056356;28;20025;-70
2023/02/28 12:32:23;;;;;;;0.10;0.10;;;11.20;99.90;;;;;;5056336;28;20107;-71
2023/02/28 12:35:14;;;;;;;0.20;0.20;;;11.50;99.90;;;;;;5056052;28;20021;-71
2023/02/28 12:37:48;;;;;;;0.20;0.20;;;11.80;99.90;;;;;;5055714;28;20486;-71
2023/02/28 12:40:23;;;;;;;0.20;0.20;;;12.10;99.90;;;;;;5056065;28;20067;-71
2023/02/28 12:42:52;;;;;;;0.20;0.20;;;12.20;99.90;;;;;;5056182;28;20025;-71
2023/02/28 12:45:41;;;;;;;0.20;0.20;;;11.80;99.90;;;;;;5055773;28;20486;-71
2023/02/28 12:48:10;;;;;;;0.10;0.10;;;11.90;99.90;;;;;;5035994;28;20542;-71
2023/02/28 12:50:37;;;;;;;0.20;0.20;;;11.90;99.90;;;;;;5035306;28;20033;-70
2023/02/28 12:53:09;;;;;;;0.20;0.20;;;11.90;99.90;;;;;;5035927;28;20065;-70
2023/02/28 12:55:55;;;;;;;0.20;0.20;;;12.10;99.90;;;;;;5035783;28;20513;-70
2023/02/28 12:58:35;;;;;;;0.20;0.20;;;12.20;99.90;;;;;;5035894;28;20025;-71
2023/02/28 13:01:27;;;;;;;0.20;0.20;;;12.50;99.90;;;;;;5040775;28;20021;-70
2023/02/28 13:04:45;;;;;;;0.20;0.20;;;13.10;99.90;;;;;;5056881;28;20358;-71
2023/02/28 13:07:29;;;;;;;0.20;0.20;;;13.50;99.90;;;;;;4974360;28;20027;-71
2023/02/28 13:09:58;;;;;;;0.20;0.20;;;13.90;99.90;;;;;;4975050;28;20548;-71
2023/02/28 13:12:25;;;;;;;0.20;0.20;;;13.80;99.90;;;;;;5023726;28;20036;-71
2023/02/28 13:15:12;;;;;;;0.15;0.15;;;13.80;99.90;;;;;;5055881;28;20025;-71
2023/02/28 13:17:40;;;;;;;0.20;0.20;;;13.30;99.90;;;;;;5037266;28;20036;-70